createdAt,value
2022-09-28T00:00:07.258Z,923.67
2022-09-28T00:01:07.497Z,923.61
2022-09-28T00:02:07.836Z,923.6
2022-09-28T00:03:08.325Z,923.6
2022-09-28T00:04:08.426Z,923.52
2022-09-28T00:05:08.834Z,923.54
2022-09-28T00:06:09.768Z,923.51
2022-09-28T00:07:10.678Z,923.46
2022-09-28T00:08:11.036Z,923.46
2022-09-28T00:09:11.252Z,923.47
2022-09-28T00:10:11.999Z,923.41
2022-09-28T00:11:12.932Z,923.41
2022-09-28T00:12:13.249Z,923.39
2022-09-28T00:13:13.571Z,923.37
2022-09-28T00:14:14.496Z,923.37
2022-09-28T00:15:15.478Z,923.35
2022-09-28T00:16:16.074Z,923.29
2022-09-28T00:17:16.713Z,923.29
2022-09-28T00:18:17.044Z,923.27
2022-09-28T00:19:17.347Z,923.29
2022-09-28T00:20:18.309Z,923.24
2022-09-28T00:21:18.809Z,923.26
2022-09-28T00:22:19.028Z,923.27
2022-09-28T00:23:19.662Z,923.3
2022-09-28T00:24:22.053Z,923.22
2022-09-28T00:25:19.977Z,923.22
2022-09-28T00:26:20.889Z,923.16
2022-09-28T00:27:21.202Z,923.18
2022-09-28T00:28:21.796Z,923.18
2022-09-28T00:29:22.420Z,923.19
2022-09-28T00:30:23.030Z,923.17
2022-09-28T00:31:23.577Z,923.04
2022-09-28T00:32:23.902Z,923.03
2022-09-28T00:33:24.491Z,923.05
2022-09-28T00:34:25.402Z,923.01
2022-09-28T00:35:25.794Z,923.02
2022-09-28T00:36:26.718Z,922.97
2022-09-28T00:37:27.215Z,923.01
2022-09-28T00:38:27.856Z,923.01
2022-09-28T00:39:28.478Z,922.97
2022-09-28T00:40:29.130Z,922.98
2022-09-28T00:41:30.167Z,923.03
2022-09-28T00:42:30.778Z,923.04
2022-09-28T00:43:31.370Z,923.09
2022-09-28T00:44:31.998Z,923.09
2022-09-28T00:45:33.025Z,923.06
2022-09-28T00:46:33.249Z,923.07
2022-09-28T00:47:33.836Z,923.03
2022-09-28T00:48:34.745Z,923
2022-09-28T00:49:35.347Z,922.94
2022-09-28T00:50:36.258Z,922.9
2022-09-28T00:51:36.462Z,922.9
2022-09-28T00:52:36.950Z,922.91
2022-09-28T00:53:37.294Z,922.89
2022-09-28T00:54:37.490Z,922.9
2022-09-28T00:55:38.496Z,922.88
2022-09-28T00:56:38.711Z,922.82
2022-09-28T00:57:39.345Z,922.78
2022-09-28T00:58:39.592Z,922.89
2022-09-28T00:59:39.803Z,922.82
2022-09-28T01:00:40.786Z,922.79
2022-09-28T01:01:41.084Z,922.79
2022-09-28T01:02:41.302Z,922.83
2022-09-28T01:03:41.636Z,922.77
2022-09-28T01:04:42.547Z,922.73
2022-09-28T01:05:42.951Z,922.68
2022-09-28T01:06:43.453Z,922.76
2022-09-28T01:07:44.340Z,922.79
2022-09-28T01:08:44.999Z,922.74
2022-09-28T01:09:45.875Z,922.75
2022-09-28T01:10:46.780Z,922.67
2022-09-28T01:11:47.095Z,922.65
2022-09-28T01:12:47.730Z,922.65
2022-09-28T01:13:48.039Z,922.63
2022-09-28T01:14:48.244Z,922.62
2022-09-28T01:15:48.948Z,922.65
2022-09-28T01:16:49.365Z,922.61
2022-09-28T01:17:50.340Z,922.56
2022-09-28T01:18:50.667Z,922.55
2022-09-28T01:19:51.590Z,922.52
2022-09-28T01:20:52.219Z,922.51
2022-09-28T01:21:52.822Z,922.53
2022-09-28T01:22:53.456Z,922.47
2022-09-28T01:23:54.129Z,922.52
2022-09-28T01:24:55.034Z,922.51
2022-09-28T01:25:56.037Z,922.47
2022-09-28T01:26:56.656Z,922.45
2022-09-28T01:27:57.281Z,922.43
2022-09-28T01:28:57.890Z,922.39
2022-09-28T01:29:58.165Z,922.36
2022-09-28T01:30:58.368Z,922.36
2022-09-28T01:31:58.937Z,922.31
2022-09-28T01:32:59.185Z,922.26
2022-09-28T01:33:59.371Z,922.25
2022-09-28T01:35:00.279Z,922.17
2022-09-28T01:36:00.858Z,922.15
2022-09-28T01:37:01.502Z,922.09
2022-09-28T01:38:01.714Z,922.01
2022-09-28T01:39:02.668Z,921.92
2022-09-28T01:40:03.622Z,921.85
2022-09-28T01:41:04.535Z,921.77
2022-09-28T01:42:05.022Z,921.75
2022-09-28T01:43:05.228Z,921.72
2022-09-28T01:44:06.159Z,921.72
2022-09-28T01:45:06.400Z,921.65
2022-09-28T01:46:06.641Z,921.58
2022-09-28T01:47:07.433Z,921.56
2022-09-28T01:48:07.624Z,921.5
2022-09-28T01:49:08.269Z,921.49
2022-09-28T01:50:08.958Z,921.47
2022-09-28T01:51:09.157Z,921.44
2022-09-28T01:52:09.766Z,921.36
2022-09-28T01:53:10.094Z,921.28
2022-09-28T01:54:11.016Z,921.32
2022-09-28T01:55:11.210Z,921.3
2022-09-28T01:56:12.223Z,921.31
2022-09-28T01:57:12.455Z,921.33
2022-09-28T01:58:13.370Z,921.31
2022-09-28T01:59:14.444Z,921.3
2022-09-28T02:00:15.023Z,921.26
2022-09-28T02:01:15.975Z,921.21
2022-09-28T02:02:16.637Z,921.21
2022-09-28T02:03:17.038Z,921.16
2022-09-28T02:04:17.251Z,921.17
2022-09-28T02:05:17.462Z,921.17
2022-09-28T02:06:17.585Z,921.13
2022-09-28T02:07:18.084Z,921.09
2022-09-28T02:08:18.970Z,921.1
2022-09-28T02:09:19.605Z,921.13
2022-09-28T02:10:20.367Z,921.14
2022-09-28T02:11:21.283Z,921.15
2022-09-28T02:12:21.899Z,921.13
2022-09-28T02:13:22.509Z,921.1
2022-09-28T02:14:23.518Z,921.06
2022-09-28T02:15:24.412Z,921.03
2022-09-28T02:16:25.178Z,921.01
2022-09-28T02:17:26.052Z,921.01
2022-09-28T02:18:26.237Z,920.99
2022-09-28T02:19:26.563Z,920.96
2022-09-28T02:20:27.453Z,920.93
2022-09-28T02:21:28.068Z,920.93
2022-09-28T02:22:28.577Z,920.89
2022-09-28T02:23:29.064Z,920.83
2022-09-28T02:24:29.405Z,920.78
2022-09-28T02:25:30.093Z,920.75
2022-09-28T02:26:30.282Z,920.72
2022-09-28T02:27:30.908Z,920.67
2022-09-28T02:28:31.540Z,920.64
2022-09-28T02:29:32.448Z,920.65
2022-09-28T02:30:33.396Z,920.61
2022-09-28T02:31:33.694Z,920.59
2022-09-28T02:32:34.305Z,920.51
2022-09-28T02:33:34.925Z,920.45
2022-09-28T02:34:35.272Z,920.45
2022-09-28T02:35:35.609Z,920.46
2022-09-28T02:36:36.645Z,920.39
2022-09-28T02:37:36.851Z,920.41
2022-09-28T02:38:37.466Z,920.38
2022-09-28T02:39:37.689Z,920.33
2022-09-28T02:40:38.377Z,920.31
2022-09-28T02:41:38.544Z,920.3
2022-09-28T02:42:39.178Z,920.26
2022-09-28T02:43:40.083Z,920.22
2022-09-28T02:44:40.272Z,920.22
2022-09-28T02:45:40.839Z,920.21
2022-09-28T02:46:41.167Z,920.15
2022-09-28T02:47:41.386Z,920.15
2022-09-28T02:48:43.849Z,920.13
2022-09-28T02:49:42.233Z,920.13
2022-09-28T02:50:42.562Z,920.1
2022-09-28T02:51:42.872Z,920.12
2022-09-28T02:52:43.075Z,920.15
2022-09-28T02:53:43.991Z,920.15
2022-09-28T02:54:44.647Z,920.16
2022-09-28T02:55:44.830Z,920.14
2022-09-28T02:56:45.844Z,920.11
2022-09-28T02:57:46.177Z,920.1
2022-09-28T02:58:46.658Z,920.07
2022-09-28T02:59:46.850Z,920.09
2022-09-28T03:00:47.582Z,920.07
2022-09-28T03:01:48.298Z,920.04
2022-09-28T03:02:48.874Z,919.98
2022-09-28T03:03:49.493Z,919.97
2022-09-28T03:04:50.197Z,919.94
2022-09-28T03:05:51.097Z,919.88
2022-09-28T03:06:51.509Z,919.87
2022-09-28T03:07:52.407Z,919.83
2022-09-28T03:08:53.298Z,919.81
2022-09-28T03:09:54.274Z,919.78
2022-09-28T03:10:54.903Z,919.76
2022-09-28T03:11:55.221Z,919.77
2022-09-28T03:12:55.439Z,919.72
2022-09-28T03:13:56.050Z,919.75
2022-09-28T03:14:57.042Z,919.72
2022-09-28T03:15:58.032Z,919.74
2022-09-28T03:16:58.869Z,919.74
2022-09-28T03:17:59.106Z,919.75
2022-09-28T03:19:00.013Z,919.73
2022-09-28T03:20:00.786Z,919.69
2022-09-28T03:21:01.399Z,919.7
2022-09-28T03:22:02.016Z,919.69
2022-09-28T03:23:26.218Z,919.72
2022-09-28T03:24:03.416Z,919.66
2022-09-28T03:25:03.651Z,919.69
2022-09-28T03:26:04.270Z,919.64
2022-09-28T03:27:04.378Z,919.6
2022-09-28T03:28:04.710Z,919.65
2022-09-28T03:29:05.618Z,919.65
2022-09-28T03:30:06.443Z,919.63
2022-09-28T03:31:06.819Z,919.69
2022-09-28T03:32:07.397Z,919.72
2022-09-28T03:33:07.639Z,919.7
2022-09-28T03:34:08.550Z,919.7
2022-09-28T03:35:09.466Z,919.7
2022-09-28T03:36:10.088Z,919.73
2022-09-28T03:37:11.156Z,919.74
2022-09-28T03:38:11.778Z,919.72
2022-09-28T03:39:11.979Z,919.73
2022-09-28T03:40:12.170Z,919.68
2022-09-28T03:41:12.415Z,919.76
2022-09-28T03:42:13.326Z,919.68
2022-09-28T03:43:13.516Z,919.63
2022-09-28T03:44:13.715Z,919.65
2022-09-28T03:45:14.331Z,919.73
2022-09-28T03:46:14.786Z,919.72
2022-09-28T03:47:15.166Z,919.68
2022-09-28T03:48:15.401Z,919.7
2022-09-28T03:49:16.532Z,919.66
2022-09-28T03:50:16.884Z,919.7
2022-09-28T03:51:17.218Z,919.75
2022-09-28T03:52:18.125Z,919.78
2022-09-28T03:53:18.327Z,919.77
2022-09-28T03:54:18.935Z,919.83
2022-09-28T03:55:19.290Z,919.8
2022-09-28T03:56:19.911Z,919.87
2022-09-28T03:57:20.919Z,919.89
2022-09-28T03:58:21.129Z,919.9
2022-09-28T03:59:21.749Z,919.85
2022-09-28T04:00:22.661Z,919.86
2022-09-28T04:01:23.034Z,919.87
2022-09-28T04:02:24.126Z,919.89
2022-09-28T04:03:24.597Z,919.87
2022-09-28T04:04:25.194Z,919.8
2022-09-28T04:05:25.827Z,919.72
2022-09-28T04:06:26.439Z,919.68
2022-09-28T04:07:30.868Z,919.66
2022-09-28T04:08:28.247Z,919.66
2022-09-28T04:09:28.860Z,919.71
2022-09-28T04:10:29.071Z,919.73
2022-09-28T04:11:38.467Z,919.79
2022-09-28T04:12:29.952Z,919.83
2022-09-28T04:13:30.146Z,919.79
2022-09-28T04:14:31.031Z,919.76
2022-09-28T04:15:31.920Z,919.79
2022-09-28T04:16:32.920Z,919.76
2022-09-28T04:17:36.568Z,919.77
2022-09-28T04:18:34.142Z,919.77
2022-09-28T04:19:34.334Z,919.77
2022-09-28T04:20:35.261Z,919.79
2022-09-28T04:21:35.584Z,919.78
2022-09-28T04:22:36.073Z,919.78
2022-09-28T04:23:36.568Z,919.77
2022-09-28T04:24:37.477Z,919.81
2022-09-28T04:25:37.839Z,919.8
2022-09-28T04:26:38.735Z,919.83
2022-09-28T04:27:39.746Z,919.86
2022-09-28T04:28:40.635Z,919.88
2022-09-28T04:29:41.539Z,919.83
2022-09-28T04:30:42.449Z,919.86
2022-09-28T04:31:42.906Z,919.87
2022-09-28T04:32:43.582Z,919.84
2022-09-28T04:33:43.789Z,919.8
2022-09-28T04:34:44.617Z,919.76
2022-09-28T04:35:45.008Z,919.8
2022-09-28T04:36:45.925Z,919.82
2022-09-28T04:37:46.237Z,919.84
2022-09-28T04:38:54.220Z,919.84
2022-09-28T04:39:48.499Z,919.79
2022-09-28T04:40:47.908Z,919.75
2022-09-28T04:41:48.058Z,919.69
2022-09-28T04:42:48.709Z,919.7
2022-09-28T04:43:49.601Z,919.65
2022-09-28T04:44:50.204Z,919.7
2022-09-28T04:45:50.565Z,919.73
2022-09-28T04:46:50.735Z,919.78
2022-09-28T04:47:51.644Z,919.74
2022-09-28T04:48:51.880Z,919.73
2022-09-28T04:49:52.214Z,919.76
2022-09-28T04:50:52.823Z,919.69
2022-09-28T04:51:53.307Z,919.72
2022-09-28T04:52:53.897Z,919.86
2022-09-28T04:53:54.520Z,919.94
2022-09-28T04:54:55.162Z,919.86
2022-09-28T04:55:56.109Z,919.73
2022-09-28T04:56:56.285Z,919.72
2022-09-28T04:57:57.019Z,919.7
2022-09-28T04:58:57.632Z,919.74
2022-09-28T04:59:58.047Z,919.89
2022-09-28T05:00:58.967Z,919.95
2022-09-28T05:01:59.624Z,919.95
2022-09-28T05:03:00.098Z,919.75
2022-09-28T05:04:00.311Z,919.68
2022-09-28T05:05:00.947Z,919.68
2022-09-28T05:06:01.864Z,919.82
2022-09-28T05:07:02.052Z,919.91
2022-09-28T05:08:02.748Z,919.91
2022-09-28T05:09:03.373Z,919.79
2022-09-28T05:10:03.500Z,919.77
2022-09-28T05:11:03.736Z,919.89
2022-09-28T05:12:03.932Z,919.92
2022-09-28T05:13:04.841Z,919.91
2022-09-28T05:14:05.751Z,919.91
2022-09-28T05:15:06.664Z,919.87
2022-09-28T05:16:07.599Z,919.79
2022-09-28T05:17:07.813Z,919.84
2022-09-28T05:18:08.822Z,919.82
2022-09-28T05:19:09.030Z,919.78
2022-09-28T05:20:10.123Z,919.75
2022-09-28T05:21:10.755Z,919.8
2022-09-28T05:22:11.468Z,919.82
2022-09-28T05:23:12.410Z,919.73
2022-09-28T05:24:12.622Z,919.7
2022-09-28T05:25:13.113Z,919.64
2022-09-28T05:26:13.346Z,919.61
2022-09-28T05:27:13.967Z,919.63
2022-09-28T05:28:14.795Z,919.6
2022-09-28T05:29:15.105Z,919.58
2022-09-28T05:30:15.209Z,919.58
2022-09-28T05:31:15.925Z,919.56
2022-09-28T05:32:16.309Z,919.48
2022-09-28T05:33:16.509Z,919.48
2022-09-28T05:34:17.065Z,919.48
2022-09-28T05:35:18.035Z,919.52
2022-09-28T05:36:18.345Z,919.47
2022-09-28T05:37:18.960Z,919.45
2022-09-28T05:38:19.247Z,919.44
2022-09-28T05:39:19.459Z,919.43
2022-09-28T05:40:20.144Z,919.47
2022-09-28T05:41:20.349Z,919.42
2022-09-28T05:42:21.254Z,919.34
2022-09-28T05:43:21.743Z,919.35
2022-09-28T05:44:22.158Z,919.33
2022-09-28T05:45:22.356Z,919.32
2022-09-28T05:46:22.863Z,919.35
2022-09-28T05:47:23.012Z,919.39
2022-09-28T05:48:23.990Z,919.34
2022-09-28T05:49:24.215Z,919.41
2022-09-28T05:50:24.432Z,919.4
2022-09-28T05:51:24.920Z,919.42
2022-09-28T05:52:25.833Z,919.34
2022-09-28T05:53:26.751Z,919.29
2022-09-28T05:54:27.651Z,919.3
2022-09-28T05:55:27.876Z,919.28
2022-09-28T05:56:28.764Z,919.27
2022-09-28T05:57:28.968Z,919.3
2022-09-28T05:58:29.707Z,919.26
2022-09-28T05:59:29.916Z,919.27
2022-09-28T06:00:30.551Z,919.32
2022-09-28T06:01:30.894Z,919.28
2022-09-28T06:02:31.191Z,919.26
2022-09-28T06:03:31.500Z,919.3
2022-09-28T06:04:32.433Z,919.25
2022-09-28T06:05:33.476Z,919.26
2022-09-28T06:06:34.087Z,919.28
2022-09-28T06:07:34.780Z,919.3
2022-09-28T06:08:35.220Z,919.32
2022-09-28T06:09:35.757Z,919.33
2022-09-28T06:10:36.669Z,919.32
2022-09-28T06:11:36.879Z,919.35
2022-09-28T06:12:37.776Z,919.33
2022-09-28T06:13:37.963Z,919.3
2022-09-28T06:14:38.624Z,919.32
2022-09-28T06:15:39.246Z,919.33
2022-09-28T06:16:43.660Z,919.3
2022-09-28T06:17:40.000Z,919.34
2022-09-28T06:18:40.728Z,919.32
2022-09-28T06:19:40.967Z,919.34
2022-09-28T06:20:41.326Z,919.37
2022-09-28T06:21:42.249Z,919.4
2022-09-28T06:22:43.108Z,919.39
2022-09-28T06:23:48.320Z,919.43
2022-09-28T06:24:43.891Z,919.37
2022-09-28T06:25:44.805Z,919.4
2022-09-28T06:26:45.175Z,919.42
2022-09-28T06:27:46.092Z,919.45
2022-09-28T06:28:47.077Z,919.46
2022-09-28T06:29:47.973Z,919.41
2022-09-28T06:30:48.315Z,919.41
2022-09-28T06:31:48.747Z,919.42
2022-09-28T06:32:48.967Z,919.42
2022-09-28T06:33:49.591Z,919.47
2022-09-28T06:34:54.075Z,919.49
2022-09-28T06:35:51.383Z,919.46
2022-09-28T06:36:52.292Z,919.44
2022-09-28T06:37:52.933Z,919.45
2022-09-28T06:38:53.222Z,919.46
2022-09-28T06:39:53.729Z,919.48
2022-09-28T06:40:53.957Z,919.45
2022-09-28T06:41:54.392Z,919.49
2022-09-28T06:42:54.725Z,919.49
2022-09-28T06:43:55.341Z,919.49
2022-09-28T06:44:55.553Z,919.53
2022-09-28T06:45:55.829Z,919.52
2022-09-28T06:46:55.892Z,919.51
2022-09-28T06:47:56.120Z,919.5
2022-09-28T06:48:56.851Z,919.48
2022-09-28T06:49:57.825Z,919.53
2022-09-28T06:50:58.440Z,919.52
2022-09-28T06:51:58.930Z,919.52
2022-09-28T06:52:59.850Z,919.51
2022-09-28T06:54:00.491Z,919.49
2022-09-28T06:55:01.546Z,919.52
2022-09-28T06:56:02.112Z,919.49
2022-09-28T06:57:02.638Z,919.53
2022-09-28T06:58:02.838Z,919.53
2022-09-28T06:59:03.433Z,919.52
2022-09-28T07:00:03.749Z,919.55
2022-09-28T07:01:04.748Z,919.59
2022-09-28T07:02:05.680Z,919.59
2022-09-28T07:03:06.574Z,919.59
2022-09-28T07:04:06.890Z,919.66
2022-09-28T07:05:07.545Z,919.63
2022-09-28T07:06:07.785Z,919.61
2022-09-28T07:07:08.717Z,919.64
2022-09-28T07:08:09.363Z,919.71
2022-09-28T07:09:33.111Z,919.69
2022-09-28T07:10:31.182Z,919.72
2022-09-28T07:11:31.678Z,919.72
2022-09-28T07:12:32.201Z,919.72
2022-09-28T07:14:53.754Z,919.79
2022-09-28T07:15:53.490Z,919.76
2022-09-28T07:17:10.569Z,919.82
2022-09-28T07:18:00.831Z,919.76
2022-09-28T07:18:54.477Z,919.84
2022-09-28T07:19:55.260Z,919.83
2022-09-28T07:20:55.523Z,919.83
2022-09-28T07:22:03.368Z,919.82
2022-09-28T07:22:58.550Z,919.85
2022-09-28T07:23:57.390Z,919.83
2022-09-28T07:24:58.035Z,919.87
2022-09-28T07:25:58.964Z,919.87
2022-09-28T07:26:59.170Z,919.93
2022-09-28T07:28:00.122Z,919.94
2022-09-28T07:29:01.052Z,919.95
2022-09-28T07:30:01.725Z,919.94
2022-09-28T07:31:02.002Z,919.95
2022-09-28T07:32:02.344Z,920
2022-09-28T07:33:03.298Z,920
2022-09-28T07:34:03.584Z,919.99
2022-09-28T07:35:04.594Z,919.99
2022-09-28T07:36:05.219Z,920.03
2022-09-28T07:37:05.766Z,920.03
2022-09-28T07:38:06.441Z,920.06
2022-09-28T07:39:07.145Z,920.09
2022-09-28T07:40:08.211Z,920.07
2022-09-28T07:41:09.029Z,920.11
2022-09-28T07:42:09.255Z,920.15
2022-09-28T07:43:09.990Z,920.15
2022-09-28T07:44:10.771Z,920.17
2022-09-28T07:45:11.571Z,920.19
2022-09-28T07:46:12.298Z,920.15
2022-09-28T07:47:12.602Z,920.2
2022-09-28T07:48:13.241Z,920.25
2022-09-28T07:49:13.508Z,920.24
2022-09-28T07:50:14.339Z,920.26
2022-09-28T07:51:14.829Z,920.26
2022-09-28T07:52:15.775Z,920.26
2022-09-28T07:53:16.671Z,920.25
2022-09-28T07:54:16.883Z,920.25
2022-09-28T07:55:17.490Z,920.23
2022-09-28T07:56:18.101Z,920.25
2022-09-28T07:57:18.721Z,920.23
2022-09-28T07:58:19.691Z,920.28
2022-09-28T07:59:20.320Z,920.31
2022-09-28T08:00:21.326Z,920.31
2022-09-28T08:01:22.373Z,920.28
2022-09-28T08:02:23.248Z,920.31
2022-09-28T08:03:23.477Z,920.29
2022-09-28T08:04:23.997Z,920.32
2022-09-28T08:05:24.491Z,920.32
2022-09-28T08:06:25.395Z,920.31
2022-09-28T08:07:25.628Z,920.32
2022-09-28T08:08:25.987Z,920.33
2022-09-28T08:09:26.634Z,920.33
2022-09-28T08:10:27.347Z,920.31
2022-09-28T08:11:27.706Z,920.31
2022-09-28T08:12:28.347Z,920.33
2022-09-28T08:13:29.004Z,920.28
2022-09-28T08:14:29.189Z,920.32
2022-09-28T08:15:29.401Z,920.38
2022-09-28T08:16:29.677Z,920.39
2022-09-28T08:17:29.977Z,920.36
2022-09-28T08:18:30.294Z,920.35
2022-09-28T08:19:31.232Z,920.38
2022-09-28T08:20:31.602Z,920.38
2022-09-28T08:21:31.812Z,920.43
2022-09-28T08:22:32.057Z,920.47
2022-09-28T08:23:32.262Z,920.45
2022-09-28T08:24:32.767Z,920.49
2022-09-28T08:25:33.046Z,920.52
2022-09-28T08:26:33.985Z,920.56
2022-09-28T08:27:34.496Z,920.57
2022-09-28T08:28:35.443Z,920.6
2022-09-28T08:29:36.075Z,920.65
2022-09-28T08:30:37.046Z,920.69
2022-09-28T08:31:37.749Z,920.68
2022-09-28T08:32:38.662Z,920.7
2022-09-28T08:33:38.937Z,920.73
2022-09-28T08:34:39.863Z,920.66
2022-09-28T08:35:40.071Z,920.66
2022-09-28T08:36:40.281Z,920.66
2022-09-28T08:37:41.960Z,920.62
2022-09-28T08:38:41.973Z,920.63
2022-09-28T08:39:42.229Z,920.65
2022-09-28T08:40:42.778Z,920.67
2022-09-28T08:41:43.499Z,920.68
2022-09-28T08:42:44.206Z,920.67
2022-09-28T08:43:44.742Z,920.67
2022-09-28T08:44:45.189Z,920.73
2022-09-28T08:45:46.149Z,920.8
2022-09-28T08:46:46.654Z,920.8
2022-09-28T08:47:47.256Z,920.82
2022-09-28T08:48:52.356Z,920.85
2022-09-28T08:49:48.649Z,920.78
2022-09-28T08:50:49.103Z,920.8
2022-09-28T08:51:49.285Z,920.76
2022-09-28T08:52:49.584Z,920.74
2022-09-28T08:53:49.861Z,920.72
2022-09-28T08:54:50.746Z,920.7
2022-09-28T08:55:51.672Z,920.71
2022-09-28T08:56:52.349Z,920.65
2022-09-28T08:57:53.404Z,920.67
2022-09-28T08:58:53.670Z,920.73
2022-09-28T08:59:54.559Z,920.78
2022-09-28T09:00:55.239Z,920.72
2022-09-28T09:01:57.468Z,920.75
2022-09-28T09:02:55.939Z,920.74
2022-09-28T09:03:56.949Z,920.69
2022-09-28T09:04:57.308Z,920.74
2022-09-28T09:05:58.083Z,920.68
2022-09-28T09:06:59.064Z,920.64
2022-09-28T09:07:59.304Z,920.61
2022-09-28T09:09:00.265Z,920.61
2022-09-28T09:10:00.939Z,920.64
2022-09-28T09:11:01.298Z,920.63
2022-09-28T09:12:01.898Z,920.63
2022-09-28T09:13:02.860Z,920.67
2022-09-28T09:14:03.398Z,920.68
2022-09-28T09:15:04.487Z,920.66
2022-09-28T09:16:04.613Z,920.62
2022-09-28T09:17:05.082Z,920.67
2022-09-28T09:18:06.081Z,920.68
2022-09-28T09:19:06.731Z,920.56
2022-09-28T09:20:06.955Z,920.56
2022-09-28T09:21:07.078Z,920.58
2022-09-28T09:22:07.580Z,920.63
2022-09-28T09:23:08.255Z,920.71
2022-09-28T09:24:08.571Z,920.74
2022-09-28T09:25:08.747Z,920.66
2022-09-28T09:26:09.693Z,920.59
2022-09-28T09:27:10.314Z,920.57
2022-09-28T09:28:10.506Z,920.58
2022-09-28T09:29:11.469Z,920.6
2022-09-28T09:30:11.689Z,920.56
2022-09-28T09:31:12.798Z,920.54
2022-09-28T09:32:13.390Z,920.53
2022-09-28T09:33:13.613Z,920.56
2022-09-28T09:34:14.593Z,920.55
2022-09-28T09:35:15.291Z,920.6
2022-09-28T09:36:15.438Z,920.63
2022-09-28T09:37:16.441Z,920.64
2022-09-28T09:38:16.660Z,920.56
2022-09-28T09:39:17.598Z,920.62
2022-09-28T09:40:18.299Z,920.61
2022-09-28T09:41:19.299Z,920.6
2022-09-28T09:42:19.928Z,920.54
2022-09-28T09:43:20.607Z,920.58
2022-09-28T09:44:20.957Z,920.58
2022-09-28T09:45:21.182Z,920.65
2022-09-28T09:46:21.650Z,920.62
2022-09-28T09:47:22.399Z,920.66
2022-09-28T09:48:23.296Z,920.67
2022-09-28T09:49:23.833Z,920.69
2022-09-28T09:50:24.769Z,920.7
2022-09-28T09:51:24.989Z,920.69
2022-09-28T09:52:25.234Z,920.67
2022-09-28T09:53:25.945Z,920.64
2022-09-28T09:54:26.745Z,920.67
2022-09-28T09:55:29.760Z,920.71
2022-09-28T09:56:27.839Z,920.68
2022-09-28T09:57:28.109Z,920.7
2022-09-28T09:58:28.852Z,920.77
2022-09-28T09:59:29.306Z,920.79
2022-09-28T10:00:29.799Z,920.83
2022-09-28T10:01:30.166Z,920.81
2022-09-28T10:02:30.874Z,920.77
2022-09-28T10:03:31.535Z,920.83
2022-09-28T10:04:32.491Z,920.86
2022-09-28T10:05:33.101Z,920.83
2022-09-28T10:06:33.310Z,920.82
2022-09-28T10:07:33.805Z,920.87
2022-09-28T10:08:34.065Z,920.89
2022-09-28T10:09:34.262Z,920.91
2022-09-28T10:10:34.764Z,920.85
2022-09-28T10:11:35.215Z,920.84
2022-09-28T10:12:36.161Z,920.87
2022-09-28T10:13:36.632Z,920.86
2022-09-28T10:14:36.848Z,920.9
2022-09-28T10:15:37.335Z,920.93
2022-09-28T10:16:38.272Z,920.91
2022-09-28T10:17:38.826Z,920.93
2022-09-28T10:18:39.011Z,920.96
2022-09-28T10:19:39.646Z,920.94
2022-09-28T10:20:40.618Z,920.97
2022-09-28T10:21:40.777Z,920.94
2022-09-28T10:22:41.291Z,920.99
2022-09-28T10:23:41.898Z,920.96
2022-09-28T10:24:42.751Z,921
2022-09-28T10:25:42.997Z,920.97
2022-09-28T10:26:43.923Z,920.95
2022-09-28T10:27:44.173Z,920.98
2022-09-28T10:28:44.393Z,920.95
2022-09-28T10:29:44.646Z,920.94
2022-09-28T10:30:45.621Z,920.96
2022-09-28T10:31:46.197Z,920.99
2022-09-28T10:32:47.124Z,921.03
2022-09-28T10:33:47.752Z,921.01
2022-09-28T10:34:50.164Z,921.03
2022-09-28T10:35:49.295Z,921.03
2022-09-28T10:36:49.516Z,921.04
2022-09-28T10:37:49.778Z,921.04
2022-09-28T10:38:50.306Z,921.01
2022-09-28T10:39:51.221Z,921.04
2022-09-28T10:40:52.172Z,921.02
2022-09-28T10:41:52.993Z,920.99
2022-09-28T10:42:53.915Z,921
2022-09-28T10:43:57.997Z,921.01
2022-09-28T10:44:55.465Z,920.96
2022-09-28T10:45:55.700Z,920.93
2022-09-28T10:46:56.401Z,920.89
2022-09-28T10:47:57.313Z,920.91
2022-09-28T10:48:57.511Z,920.92
2022-09-28T10:49:58.433Z,920.93
2022-09-28T10:50:59.074Z,920.94
2022-09-28T10:52:00.092Z,920.98
2022-09-28T10:53:00.727Z,921.03
2022-09-28T10:54:01.673Z,921.06
2022-09-28T10:55:02.074Z,921.09
2022-09-28T10:56:02.996Z,921.1
2022-09-28T10:57:03.946Z,921.08
2022-09-28T10:58:04.899Z,921.06
2022-09-28T10:59:05.093Z,921.04
2022-09-28T11:00:05.825Z,921.12
2022-09-28T11:01:06.429Z,921.14
2022-09-28T11:02:07.428Z,921.17
2022-09-28T11:03:07.855Z,921.14
2022-09-28T11:04:08.201Z,921.02
2022-09-28T11:05:09.010Z,921
2022-09-28T11:06:09.497Z,920.99
2022-09-28T11:07:10.609Z,920.98
2022-09-28T11:08:11.173Z,921.05
2022-09-28T11:09:11.841Z,921.03
2022-09-28T11:10:12.818Z,921.01
2022-09-28T11:11:13.737Z,921
2022-09-28T11:12:14.321Z,920.98
2022-09-28T11:13:14.708Z,921.01
2022-09-28T11:14:15.204Z,921.02
2022-09-28T11:15:15.978Z,921.03
2022-09-28T11:16:16.942Z,921.05
2022-09-28T11:17:17.082Z,921.06
2022-09-28T11:18:17.719Z,921.03
2022-09-28T11:19:18.372Z,921.02
2022-09-28T11:20:18.366Z,921.04
2022-09-28T11:21:19.146Z,921.08
2022-09-28T11:22:19.263Z,921.09
2022-09-28T11:23:20.181Z,921.09
2022-09-28T11:24:21.148Z,921.04
2022-09-28T11:25:21.657Z,921.12
2022-09-28T11:26:22.027Z,921.07
2022-09-28T11:27:22.240Z,921.1
2022-09-28T11:28:22.467Z,921.13
2022-09-28T11:29:23.407Z,921.15
2022-09-28T11:30:23.631Z,921.13
2022-09-28T11:31:23.987Z,921.13
2022-09-28T11:32:24.562Z,921.12
2022-09-28T11:33:25.181Z,921.09
2022-09-28T11:34:36.352Z,921.15
2022-09-28T11:35:25.981Z,921.1
2022-09-28T11:36:26.901Z,921.11
2022-09-28T11:37:27.405Z,921.16
2022-09-28T11:38:28.033Z,921.18
2022-09-28T11:39:28.604Z,921.17
2022-09-28T11:40:29.568Z,921.11
2022-09-28T11:41:29.870Z,921.1
2022-09-28T11:42:30.934Z,921.08
2022-09-28T11:43:31.591Z,921.06
2022-09-28T11:44:33.231Z,921.09
2022-09-28T11:45:32.020Z,921.06
2022-09-28T11:46:32.620Z,921.04
2022-09-28T11:47:32.877Z,921.07
2022-09-28T11:48:33.788Z,921.07
2022-09-28T11:49:34.711Z,921.06
2022-09-28T11:50:35.335Z,921.05
2022-09-28T11:51:35.833Z,921.04
2022-09-28T11:52:36.600Z,921.07
2022-09-28T11:53:37.520Z,921.07
2022-09-28T11:54:37.749Z,921.06
2022-09-28T11:55:38.678Z,921.09
2022-09-28T11:56:38.875Z,921.06
2022-09-28T11:57:39.067Z,921.02
2022-09-28T11:58:39.989Z,921.02
2022-09-28T11:59:40.935Z,921.03
2022-09-28T12:00:41.161Z,921.01
2022-09-28T12:01:41.794Z,921.02
2022-09-28T12:02:42.036Z,921.06
2022-09-28T12:03:42.885Z,921.11
2022-09-28T12:04:43.564Z,921.09
2022-09-28T12:05:44.188Z,921.05
2022-09-28T12:06:44.687Z,921.09
2022-09-28T12:07:45.625Z,921.1
2022-09-28T12:08:46.571Z,921.17
2022-09-28T12:09:46.840Z,921.1
2022-09-28T12:10:47.812Z,921.16
2022-09-28T12:11:48.715Z,921.19
2022-09-28T12:12:48.867Z,921.2
2022-09-28T12:13:49.825Z,921.22
2022-09-28T12:14:50.055Z,921.17
2022-09-28T12:16:17.385Z,921.14
2022-09-28T12:17:22.183Z,921.19
2022-09-28T12:18:22.728Z,921.17
2022-09-28T12:19:22.979Z,921.1
2022-09-28T12:20:23.234Z,921.09
2022-09-28T12:21:23.997Z,921.09
2022-09-28T12:22:24.214Z,921.06
2022-09-28T12:23:25.131Z,921.08
2022-09-28T12:24:25.331Z,921.12
2022-09-28T12:25:25.588Z,921.14
2022-09-28T12:26:26.211Z,921.13
2022-09-28T12:27:27.109Z,921.18
2022-09-28T12:28:27.500Z,921.23
2022-09-28T12:29:28.411Z,921.23
2022-09-28T12:30:29.317Z,921.21
2022-09-28T12:31:29.698Z,921.23
2022-09-28T12:32:29.916Z,921.2
2022-09-28T12:33:30.936Z,921.25
2022-09-28T12:34:31.430Z,921.24
2022-09-28T12:35:31.930Z,921.24
2022-09-28T12:36:32.859Z,921.23
2022-09-28T12:37:33.074Z,921.2
2022-09-28T12:38:33.838Z,921.16
2022-09-28T12:39:47.177Z,921.17
2022-09-28T12:40:34.916Z,921.15